Terminal Aerodrome Forecast
Issued by NWS

Home | Current Version | Previous Version | Graphics & Text | Print | Product List | Glossary On
Versions: 1 2 3 4 5 6 7 8 9 10 11 12 13 14 15 16 17 18 19 20 21 22 23 24 25 26 27 28
000
FTUS45 KGGW 251700
TAFGDV
TAF
KGDV 251721Z 2518/2618 32012KT P6SM BKN019
      TEMPO 2518/2521 -SHRA OVC015
     FM252100 31010KT P6SM BKN060
     FM260000 VRB03KT P6SM SCT060
     FM260900 00000KT 1SM BR SCT001
     FM261600 VRB05KT P6SM FEW015
      AMD LTD TO CLD VIS AND WIND=

USA.gov is the U.S. government's official web portal to all federal, state and local government web resources and services.